sensor_id;sensor_type;location;lat;lon;timestamp;temperature;humidity
10089;DHT22;51898;49.864;8.550;2024-02-21T00:02:29;7.80;88.20
10089;DHT22;51898;49.864;8.550;2024-02-21T00:05:30;7.80;88.50
10089;DHT22;51898;49.864;8.550;2024-02-21T00:08:32;7.90;88.50
10089;DHT22;51898;49.864;8.550;2024-02-21T00:11:34;7.90;88.50
10089;DHT22;51898;49.864;8.550;2024-02-21T00:14:36;7.90;88.70
10089;DHT22;51898;49.864;8.550;2024-02-21T00:17:38;7.90;88.60
10089;DHT22;51898;49.864;8.550;2024-02-21T00:20:39;8.00;88.50
10089;DHT22;51898;49.864;8.550;2024-02-21T00:23:41;8.00;88.50
10089;DHT22;51898;49.864;8.550;2024-02-21T00:26:43;8.00;88.40
10089;DHT22;51898;49.864;8.550;2024-02-21T00:29:45;8.00;88.50
10089;DHT22;51898;49.864;8.550;2024-02-21T00:32:47;8.00;88.50
10089;DHT22;51898;49.864;8.550;2024-02-21T00:35:48;8.00;88.40
10089;DHT22;51898;49.864;8.550;2024-02-21T00:38:50;8.00;88.40
10089;DHT22;51898;49.864;8.550;2024-02-21T00:41:52;8.00;88.30
10089;DHT22;51898;49.864;8.550;2024-02-21T00:44:53;8.00;88.20
10089;DHT22;51898;49.864;8.550;2024-02-21T00:47:55;8.00;88.20
10089;DHT22;51898;49.864;8.550;2024-02-21T00:50:57;8.00;88.30
10089;DHT22;51898;49.864;8.550;2024-02-21T00:53:59;8.00;88.40
10089;DHT22;51898;49.864;8.550;2024-02-21T00:57:03;7.90;88.30
10089;DHT22;51898;49.864;8.550;2024-02-21T01:00:05;7.90;88.40
10089;DHT22;51898;49.864;8.550;2024-02-21T01:03:07;7.90;88.50
10089;DHT22;51898;49.864;8.550;2024-02-21T01:06:08;7.80;88.90
10089;DHT22;51898;49.864;8.550;2024-02-21T01:09:13;7.70;89.00
10089;DHT22;51898;49.864;8.550;2024-02-21T01:12:15;7.70;89.30
10089;DHT22;51898;49.864;8.550;2024-02-21T01:15:17;7.60;89.60
10089;DHT22;51898;49.864;8.550;2024-02-21T01:18:19;7.60;89.80
10089;DHT22;51898;49.864;8.550;2024-02-21T01:21:21;7.60;90.10
10089;DHT22;51898;49.864;8.550;2024-02-21T01:24:23;7.60;90.40
10089;DHT22;51898;49.864;8.550;2024-02-21T01:27:25;7.50;90.60
10089;DHT22;51898;49.864;8.550;2024-02-21T01:30:27;7.60;90.70
10089;DHT22;51898;49.864;8.550;2024-02-21T01:33:29;7.60;90.60
10089;DHT22;51898;49.864;8.550;2024-02-21T01:36:36;7.60;90.60
10089;DHT22;51898;49.864;8.550;2024-02-21T01:39:37;7.60;90.70
10089;DHT22;51898;49.864;8.550;2024-02-21T01:42:39;7.60;90.80
10089;DHT22;51898;49.864;8.550;2024-02-21T01:45:42;7.50;90.70
10089;DHT22;51898;49.864;8.550;2024-02-21T01:48:44;7.50;90.70
10089;DHT22;51898;49.864;8.550;2024-02-21T01:51:48;7.50;90.70
10089;DHT22;51898;49.864;8.550;2024-02-21T01:54:50;7.50;90.70
10089;DHT22;51898;49.864;8.550;2024-02-21T01:57:52;7.50;90.90
10089;DHT22;51898;49.864;8.550;2024-02-21T02:00:54;7.40;90.90
10089;DHT22;51898;49.864;8.550;2024-02-21T02:03:59;7.40;91.10
10089;DHT22;51898;49.864;8.550;2024-02-21T02:07:03;7.40;91.00
10089;DHT22;51898;49.864;8.550;2024-02-21T02:10:06;7.40;91.10
10089;DHT22;51898;49.864;8.550;2024-02-21T02:13:08;7.30;91.10
10089;DHT22;51898;49.864;8.550;2024-02-21T02:16:10;7.30;91.20
10089;DHT22;51898;49.864;8.550;2024-02-21T02:19:12;7.30;91.20
10089;DHT22;51898;49.864;8.550;2024-02-21T02:22:24;7.30;91.20
10089;DHT22;51898;49.864;8.550;2024-02-21T02:25:27;7.30;91.30
10089;DHT22;51898;49.864;8.550;2024-02-21T02:28:28;7.30;91.30
10089;DHT22;51898;49.864;8.550;2024-02-21T02:31:30;7.30;91.30
10089;DHT22;51898;49.864;8.550;2024-02-21T02:34:32;7.20;91.50
10089;DHT22;51898;49.864;8.550;2024-02-21T02:37:34;7.20;91.70
10089;DHT22;51898;49.864;8.550;2024-02-21T02:40:37;7.20;91.80
10089;DHT22;51898;49.864;8.550;2024-02-21T02:43:39;7.10;91.90
10089;DHT22;51898;49.864;8.550;2024-02-21T02:46:41;7.10;92.00
10089;DHT22;51898;49.864;8.550;2024-02-21T02:49:43;7.00;92.10
10089;DHT22;51898;49.864;8.550;2024-02-21T02:52:45;7.00;92.20
10089;DHT22;51898;49.864;8.550;2024-02-21T02:55:47;7.00;92.40
10089;DHT22;51898;49.864;8.550;2024-02-21T02:58:49;6.90;92.60
10089;DHT22;51898;49.864;8.550;2024-02-21T03:01:51;6.90;92.80
10089;DHT22;51898;49.864;8.550;2024-02-21T03:04:52;6.80;93.10
10089;DHT22;51898;49.864;8.550;2024-02-21T03:07:55;6.90;93.20
10089;DHT22;51898;49.864;8.550;2024-02-21T03:10:57;6.80;93.30
10089;DHT22;51898;49.864;8.550;2024-02-21T03:13:58;6.80;93.30
10089;DHT22;51898;49.864;8.550;2024-02-21T03:17:00;6.80;93.30
10089;DHT22;51898;49.864;8.550;2024-02-21T03:20:03;6.80;93.60
10089;DHT22;51898;49.864;8.550;2024-02-21T03:23:10;6.70;93.70
10089;DHT22;51898;49.864;8.550;2024-02-21T03:26:12;6.70;94.00
10089;DHT22;51898;49.864;8.550;2024-02-21T03:29:17;6.60;94.00
10089;DHT22;51898;49.864;8.550;2024-02-21T03:32:19;6.60;94.10
10089;DHT22;51898;49.864;8.550;2024-02-21T03:35:21;6.50;94.40
10089;DHT22;51898;49.864;8.550;2024-02-21T03:38:22;6.50;94.40
10089;DHT22;51898;49.864;8.550;2024-02-21T03:41:24;6.50;94.50
10089;DHT22;51898;49.864;8.550;2024-02-21T03:44:26;6.50;94.70
10089;DHT22;51898;49.864;8.550;2024-02-21T03:47:28;6.50;94.80
10089;DHT22;51898;49.864;8.550;2024-02-21T03:50:30;6.50;94.90
10089;DHT22;51898;49.864;8.550;2024-02-21T03:53:32;6.50;95.00
10089;DHT22;51898;49.864;8.550;2024-02-21T03:56:37;6.60;95.10
10089;DHT22;51898;49.864;8.550;2024-02-21T03:59:39;6.60;95.20
10089;DHT22;51898;49.864;8.550;2024-02-21T04:02:45;6.60;95.10
10089;DHT22;51898;49.864;8.550;2024-02-21T04:05:47;6.60;95.20
10089;DHT22;51898;49.864;8.550;2024-02-21T04:08:48;6.70;95.10
10089;DHT22;51898;49.864;8.550;2024-02-21T04:11:50;6.70;95.10
10089;DHT22;51898;49.864;8.550;2024-02-21T04:14:52;6.60;95.30
10089;DHT22;51898;49.864;8.550;2024-02-21T04:17:54;6.60;95.30
10089;DHT22;51898;49.864;8.550;2024-02-21T04:20:55;6.60;95.20
10089;DHT22;51898;49.864;8.550;2024-02-21T04:23:57;6.60;95.40
10089;DHT22;51898;49.864;8.550;2024-02-21T04:26:59;6.60;95.60
10089;DHT22;51898;49.864;8.550;2024-02-21T04:30:01;6.70;95.60
10089;DHT22;51898;49.864;8.550;2024-02-21T04:33:03;6.70;95.60
10089;DHT22;51898;49.864;8.550;2024-02-21T04:36:05;6.70;95.50
10089;DHT22;51898;49.864;8.550;2024-02-21T04:39:06;6.70;95.50
10089;DHT22;51898;49.864;8.550;2024-02-21T04:42:08;6.70;95.70
10089;DHT22;51898;49.864;8.550;2024-02-21T04:45:10;6.60;95.80
10089;DHT22;51898;49.864;8.550;2024-02-21T04:48:11;6.70;95.70
10089;DHT22;51898;49.864;8.550;2024-02-21T04:51:13;6.60;95.90
10089;DHT22;51898;49.864;8.550;2024-02-21T04:54:15;6.60;95.80
10089;DHT22;51898;49.864;8.550;2024-02-21T04:57:17;6.60;95.70
10089;DHT22;51898;49.864;8.550;2024-02-21T05:00:19;6.60;95.60
10089;DHT22;51898;49.864;8.550;2024-02-21T05:03:21;6.50;95.80
10089;DHT22;51898;49.864;8.550;2024-02-21T05:06:23;6.40;96.10
10089;DHT22;51898;49.864;8.550;2024-02-21T05:09:25;6.40;96.40
10089;DHT22;51898;49.864;8.550;2024-02-21T05:12:26;6.30;96.80
10089;DHT22;51898;49.864;8.550;2024-02-21T05:15:28;6.20;97.30
10089;DHT22;51898;49.864;8.550;2024-02-21T05:18:30;6.20;97.50
10089;DHT22;51898;49.864;8.550;2024-02-21T05:21:32;6.20;97.80
10089;DHT22;51898;49.864;8.550;2024-02-21T05:24:33;6.20;97.90
10089;DHT22;51898;49.864;8.550;2024-02-21T05:27:35;6.20;98.00
10089;DHT22;51898;49.864;8.550;2024-02-21T05:30:38;6.20;97.90
10089;DHT22;51898;49.864;8.550;2024-02-21T05:33:40;6.30;97.80
10089;DHT22;51898;49.864;8.550;2024-02-21T05:36:42;6.30;97.90
10089;DHT22;51898;49.864;8.550;2024-02-21T05:39:44;6.30;97.90
10089;DHT22;51898;49.864;8.550;2024-02-21T05:42:45;6.30;97.80
10089;DHT22;51898;49.864;8.550;2024-02-21T05:45:47;6.40;97.60
10089;DHT22;51898;49.864;8.550;2024-02-21T05:48:50;6.40;97.20
10089;DHT22;51898;49.864;8.550;2024-02-21T05:51:52;6.50;96.70
10089;DHT22;51898;49.864;8.550;2024-02-21T05:54:53;6.50;96.50
10089;DHT22;51898;49.864;8.550;2024-02-21T05:57:55;6.50;96.20
10089;DHT22;51898;49.864;8.550;2024-02-21T06:00:57;6.60;96.10
10089;DHT22;51898;49.864;8.550;2024-02-21T06:03:59;6.60;96.00
10089;DHT22;51898;49.864;8.550;2024-02-21T06:07:01;6.70;95.80
10089;DHT22;51898;49.864;8.550;2024-02-21T06:10:03;6.70;95.70
10089;DHT22;51898;49.864;8.550;2024-02-21T06:13:05;6.70;95.30
10089;DHT22;51898;49.864;8.550;2024-02-21T06:16:07;6.70;95.30
10089;DHT22;51898;49.864;8.550;2024-02-21T06:19:09;6.70;95.20
10089;DHT22;51898;49.864;8.550;2024-02-21T06:22:11;6.70;95.10
10089;DHT22;51898;49.864;8.550;2024-02-21T06:25:13;6.70;95.10
10089;DHT22;51898;49.864;8.550;2024-02-21T06:28:15;6.70;95.20
10089;DHT22;51898;49.864;8.550;2024-02-21T06:31:16;6.70;95.00
10089;DHT22;51898;49.864;8.550;2024-02-21T06:34:19;6.60;94.90
10089;DHT22;51898;49.864;8.550;2024-02-21T06:37:21;6.50;94.70
10089;DHT22;51898;49.864;8.550;2024-02-21T06:40:23;6.50;94.60
10089;DHT22;51898;49.864;8.550;2024-02-21T06:43:25;6.50;94.70
10089;DHT22;51898;49.864;8.550;2024-02-21T06:46:27;6.40;95.00
10089;DHT22;51898;49.864;8.550;2024-02-21T06:49:35;6.30;95.20
10089;DHT22;51898;49.864;8.550;2024-02-21T06:52:38;6.30;95.30
10089;DHT22;51898;49.864;8.550;2024-02-21T06:55:40;6.30;95.40
10089;DHT22;51898;49.864;8.550;2024-02-21T06:58:42;6.30;95.50
10089;DHT22;51898;49.864;8.550;2024-02-21T07:01:53;6.30;95.50
10089;DHT22;51898;49.864;8.550;2024-02-21T07:04:55;6.30;95.50
10089;DHT22;51898;49.864;8.550;2024-02-21T07:07:57;6.30;95.50
10089;DHT22;51898;49.864;8.550;2024-02-21T07:10:58;6.40;95.60
10089;DHT22;51898;49.864;8.550;2024-02-21T07:14:00;6.50;95.40
10089;DHT22;51898;49.864;8.550;2024-02-21T07:17:02;6.50;95.30
10089;DHT22;51898;49.864;8.550;2024-02-21T07:20:05;6.50;95.20
10089;DHT22;51898;49.864;8.550;2024-02-21T07:23:08;6.50;95.10
10089;DHT22;51898;49.864;8.550;2024-02-21T07:26:10;6.50;95.00
10089;DHT22;51898;49.864;8.550;2024-02-21T07:29:12;6.60;94.80
10089;DHT22;51898;49.864;8.550;2024-02-21T07:32:14;6.60;94.50
10089;DHT22;51898;49.864;8.550;2024-02-21T07:35:16;6.70;94.30
10089;DHT22;51898;49.864;8.550;2024-02-21T07:38:17;6.80;93.80
10089;DHT22;51898;49.864;8.550;2024-02-21T07:41:20;6.90;93.50
10089;DHT22;51898;49.864;8.550;2024-02-21T07:44:21;6.90;93.30
10089;DHT22;51898;49.864;8.550;2024-02-21T07:47:23;7.00;92.90
10089;DHT22;51898;49.864;8.550;2024-02-21T07:50:25;7.10;92.40
10089;DHT22;51898;49.864;8.550;2024-02-21T07:53:27;7.20;92.00
10089;DHT22;51898;49.864;8.550;2024-02-21T07:56:29;7.30;91.60
10089;DHT22;51898;49.864;8.550;2024-02-21T07:59:31;7.30;91.10
10089;DHT22;51898;49.864;8.550;2024-02-21T08:02:32;7.40;91.10
10089;DHT22;51898;49.864;8.550;2024-02-21T08:05:35;7.50;90.30
10089;DHT22;51898;49.864;8.550;2024-02-21T08:08:36;7.60;89.90
10089;DHT22;51898;49.864;8.550;2024-02-21T08:11:38;7.60;89.60
10089;DHT22;51898;49.864;8.550;2024-02-21T08:14:40;7.60;89.50
10089;DHT22;51898;49.864;8.550;2024-02-21T08:17:41;7.70;89.20
10089;DHT22;51898;49.864;8.550;2024-02-21T08:20:43;7.70;88.80
10089;DHT22;51898;49.864;8.550;2024-02-21T08:23:45;7.80;88.70
10089;DHT22;51898;49.864;8.550;2024-02-21T08:26:46;7.90;88.60
10089;DHT22;51898;49.864;8.550;2024-02-21T08:29:48;7.90;88.20
10089;DHT22;51898;49.864;8.550;2024-02-21T08:32:50;8.00;88.10
10089;DHT22;51898;49.864;8.550;2024-02-21T08:35:52;8.10;87.60
10089;DHT22;51898;49.864;8.550;2024-02-21T08:38:53;8.10;86.90
10089;DHT22;51898;49.864;8.550;2024-02-21T08:41:55;8.20;86.70
10089;DHT22;51898;49.864;8.550;2024-02-21T08:44:58;8.20;86.10
10089;DHT22;51898;49.864;8.550;2024-02-21T08:48:00;8.20;85.90
10089;DHT22;51898;49.864;8.550;2024-02-21T08:51:02;8.20;85.90
10089;DHT22;51898;49.864;8.550;2024-02-21T08:54:04;8.30;85.70
10089;DHT22;51898;49.864;8.550;2024-02-21T08:57:06;8.30;85.20
10089;DHT22;51898;49.864;8.550;2024-02-21T09:00:08;8.30;85.40
10089;DHT22;51898;49.864;8.550;2024-02-21T09:03:14;8.40;84.60
10089;DHT22;51898;49.864;8.550;2024-02-21T09:06:16;8.40;84.50
10089;DHT22;51898;49.864;8.550;2024-02-21T09:09:18;8.50;84.40
10089;DHT22;51898;49.864;8.550;2024-02-21T09:12:19;8.60;84.20
10089;DHT22;51898;49.864;8.550;2024-02-21T09:15:21;8.70;84.00
10089;DHT22;51898;49.864;8.550;2024-02-21T09:18:23;8.90;83.40
10089;DHT22;51898;49.864;8.550;2024-02-21T09:21:24;9.00;81.90
10089;DHT22;51898;49.864;8.550;2024-02-21T09:24:26;9.10;82.10
10089;DHT22;51898;49.864;8.550;2024-02-21T09:27:28;9.20;81.30
10089;DHT22;51898;49.864;8.550;2024-02-21T09:30:30;9.20;80.70
10089;DHT22;51898;49.864;8.550;2024-02-21T09:33:32;9.20;81.10
10089;DHT22;51898;49.864;8.550;2024-02-21T09:36:34;9.30;81.10
10089;DHT22;51898;49.864;8.550;2024-02-21T09:39:35;9.40;81.20
10089;DHT22;51898;49.864;8.550;2024-02-21T09:42:39;9.50;80.60
10089;DHT22;51898;49.864;8.550;2024-02-21T09:45:43;9.50;80.10
10089;DHT22;51898;49.864;8.550;2024-02-21T09:49:19;9.60;80.10
10089;DHT22;51898;49.864;8.550;2024-02-21T09:52:24;9.60;80.00
10089;DHT22;51898;49.864;8.550;2024-02-21T09:55:27;9.70;80.30
10089;DHT22;51898;49.864;8.550;2024-02-21T09:58:31;9.70;79.70
10089;DHT22;51898;49.864;8.550;2024-02-21T10:01:33;9.80;80.20
10089;DHT22;51898;49.864;8.550;2024-02-21T10:04:36;9.90;79.60
10089;DHT22;51898;49.864;8.550;2024-02-21T10:07:38;10.00;78.60
10089;DHT22;51898;49.864;8.550;2024-02-21T10:10:45;10.10;78.50
10089;DHT22;51898;49.864;8.550;2024-02-21T10:13:47;10.10;78.00
10089;DHT22;51898;49.864;8.550;2024-02-21T10:16:57;10.20;77.70
10089;DHT22;51898;49.864;8.550;2024-02-21T10:20:11;10.30;77.40
10089;DHT22;51898;49.864;8.550;2024-02-21T10:23:13;10.50;77.30
10089;DHT22;51898;49.864;8.550;2024-02-21T10:26:15;10.60;76.10
10089;DHT22;51898;49.864;8.550;2024-02-21T10:29:17;10.50;76.00
10089;DHT22;51898;49.864;8.550;2024-02-21T10:32:19;10.70;76.30
10089;DHT22;51898;49.864;8.550;2024-02-21T10:35:29;10.60;75.80
10089;DHT22;51898;49.864;8.550;2024-02-21T10:38:32;10.70;76.00
10089;DHT22;51898;49.864;8.550;2024-02-21T10:41:36;10.80;76.10
10089;DHT22;51898;49.864;8.550;2024-02-21T10:44:39;10.80;75.90
10089;DHT22;51898;49.864;8.550;2024-02-21T10:47:45;10.80;75.90
10089;DHT22;51898;49.864;8.550;2024-02-21T10:51:06;10.80;75.60
10089;DHT22;51898;49.864;8.550;2024-02-21T10:54:30;10.90;75.50
10089;DHT22;51898;49.864;8.550;2024-02-21T10:57:37;11.00;75.20
10089;DHT22;51898;49.864;8.550;2024-02-21T11:00:40;10.80;75.10
10089;DHT22;51898;49.864;8.550;2024-02-21T11:03:43;10.90;75.60
10089;DHT22;51898;49.864;8.550;2024-02-21T11:06:46;11.00;73.90
10089;DHT22;51898;49.864;8.550;2024-02-21T11:09:52;11.00;74.10
10089;DHT22;51898;49.864;8.550;2024-02-21T11:13:07;11.10;74.00
10089;DHT22;51898;49.864;8.550;2024-02-21T11:16:11;11.20;73.10
10089;DHT22;51898;49.864;8.550;2024-02-21T11:19:24;11.10;72.90
10089;DHT22;51898;49.864;8.550;2024-02-21T11:22:26;11.10;74.30
10089;DHT22;51898;49.864;8.550;2024-02-21T11:25:32;11.30;74.70
10089;DHT22;51898;49.864;8.550;2024-02-21T11:28:36;11.40;73.60
10089;DHT22;51898;49.864;8.550;2024-02-21T11:31:42;11.40;72.80
10089;DHT22;51898;49.864;8.550;2024-02-21T11:37:56;11.30;72.50
10089;DHT22;51898;49.864;8.550;2024-02-21T11:41:08;11.10;72.50
10089;DHT22;51898;49.864;8.550;2024-02-21T11:44:13;11.10;73.30
10089;DHT22;51898;49.864;8.550;2024-02-21T11:47:15;11.20;73.30
10089;DHT22;51898;49.864;8.550;2024-02-21T11:50:17;11.20;72.70
10089;DHT22;51898;49.864;8.550;2024-02-21T11:53:22;11.30;72.40
10089;DHT22;51898;49.864;8.550;2024-02-21T11:56:24;11.30;72.30
10089;DHT22;51898;49.864;8.550;2024-02-21T11:59:30;11.30;72.10
10089;DHT22;51898;49.864;8.550;2024-02-21T12:02:33;11.40;72.50
10089;DHT22;51898;49.864;8.550;2024-02-21T12:05:34;11.50;72.30
10089;DHT22;51898;49.864;8.550;2024-02-21T12:08:43;11.60;72.40
10089;DHT22;51898;49.864;8.550;2024-02-21T12:11:45;11.70;72.60
10089;DHT22;51898;49.864;8.550;2024-02-21T12:14:55;11.70;71.70
10089;DHT22;51898;49.864;8.550;2024-02-21T12:17:57;11.60;71.40
10089;DHT22;51898;49.864;8.550;2024-02-21T12:21:01;11.70;71.30
10089;DHT22;51898;49.864;8.550;2024-02-21T12:24:24;11.70;71.60
10089;DHT22;51898;49.864;8.550;2024-02-21T12:27:25;11.60;71.70
10089;DHT22;51898;49.864;8.550;2024-02-21T12:30:28;11.70;71.90
10089;DHT22;51898;49.864;8.550;2024-02-21T12:33:30;11.80;71.40
10089;DHT22;51898;49.864;8.550;2024-02-21T12:36:33;12.00;70.80
10089;DHT22;51898;49.864;8.550;2024-02-21T12:39:35;12.00;70.40
10089;DHT22;51898;49.864;8.550;2024-02-21T12:42:38;12.20;69.80
10089;DHT22;51898;49.864;8.550;2024-02-21T12:45:40;12.20;69.50
10089;DHT22;51898;49.864;8.550;2024-02-21T12:48:41;12.30;70.00
10089;DHT22;51898;49.864;8.550;2024-02-21T12:51:44;12.30;69.90
10089;DHT22;51898;49.864;8.550;2024-02-21T12:54:48;12.30;69.20
10089;DHT22;51898;49.864;8.550;2024-02-21T12:57:49;12.10;69.00
10089;DHT22;51898;49.864;8.550;2024-02-21T13:00:51;12.00;69.60
10089;DHT22;51898;49.864;8.550;2024-02-21T13:03:53;12.10;70.20
10089;DHT22;51898;49.864;8.550;2024-02-21T13:06:55;12.10;70.30
10089;DHT22;51898;49.864;8.550;2024-02-21T13:09:57;12.00;70.10
10089;DHT22;51898;49.864;8.550;2024-02-21T13:13:01;11.90;71.20
10089;DHT22;51898;49.864;8.550;2024-02-21T13:16:03;11.90;70.80
10089;DHT22;51898;49.864;8.550;2024-02-21T13:19:06;11.90;70.50
10089;DHT22;51898;49.864;8.550;2024-02-21T13:22:08;11.90;71.20
10089;DHT22;51898;49.864;8.550;2024-02-21T13:25:10;12.00;71.70
10089;DHT22;51898;49.864;8.550;2024-02-21T13:28:12;11.90;70.90
10089;DHT22;51898;49.864;8.550;2024-02-21T13:31:15;11.90;70.80
10089;DHT22;51898;49.864;8.550;2024-02-21T13:34:18;11.90;70.60
10089;DHT22;51898;49.864;8.550;2024-02-21T13:37:20;11.90;70.50
10089;DHT22;51898;49.864;8.550;2024-02-21T13:40:23;11.90;70.70
10089;DHT22;51898;49.864;8.550;2024-02-21T13:43:25;11.90;70.60
10089;DHT22;51898;49.864;8.550;2024-02-21T13:46:27;12.00;70.00
10089;DHT22;51898;49.864;8.550;2024-02-21T13:49:29;12.00;69.80
10089;DHT22;51898;49.864;8.550;2024-02-21T13:52:32;12.00;69.90
10089;DHT22;51898;49.864;8.550;2024-02-21T13:55:35;12.00;69.70
10089;DHT22;51898;49.864;8.550;2024-02-21T13:58:37;12.10;69.60
10089;DHT22;51898;49.864;8.550;2024-02-21T14:01:39;12.10;68.80
10089;DHT22;51898;49.864;8.550;2024-02-21T14:04:40;12.00;68.70
10089;DHT22;51898;49.864;8.550;2024-02-21T14:07:42;12.10;69.10
10089;DHT22;51898;49.864;8.550;2024-02-21T14:10:44;12.10;69.20
10089;DHT22;51898;49.864;8.550;2024-02-21T14:13:46;12.10;69.60
10089;DHT22;51898;49.864;8.550;2024-02-21T14:16:48;12.10;68.30
10089;DHT22;51898;49.864;8.550;2024-02-21T14:19:50;12.10;68.10
10089;DHT22;51898;49.864;8.550;2024-02-21T14:22:53;12.10;68.00
10089;DHT22;51898;49.864;8.550;2024-02-21T14:25:55;12.00;68.00
10089;DHT22;51898;49.864;8.550;2024-02-21T14:28:57;12.10;68.70
10089;DHT22;51898;49.864;8.550;2024-02-21T14:31:59;12.10;68.40
10089;DHT22;51898;49.864;8.550;2024-02-21T14:35:01;12.10;68.20
10089;DHT22;51898;49.864;8.550;2024-02-21T14:38:07;12.10;69.00
10089;DHT22;51898;49.864;8.550;2024-02-21T14:41:10;12.10;69.10
10089;DHT22;51898;49.864;8.550;2024-02-21T14:44:14;12.00;68.00
10089;DHT22;51898;49.864;8.550;2024-02-21T14:47:16;12.00;68.60
10089;DHT22;51898;49.864;8.550;2024-02-21T14:50:17;12.00;68.80
10089;DHT22;51898;49.864;8.550;2024-02-21T14:53:19;12.00;68.70
10089;DHT22;51898;49.864;8.550;2024-02-21T14:56:21;12.00;69.00
10089;DHT22;51898;49.864;8.550;2024-02-21T14:59:24;12.00;69.10
10089;DHT22;51898;49.864;8.550;2024-02-21T15:02:35;12.10;69.60
10089;DHT22;51898;49.864;8.550;2024-02-21T15:05:37;12.00;69.20
10089;DHT22;51898;49.864;8.550;2024-02-21T15:08:40;12.00;68.90
10089;DHT22;51898;49.864;8.550;2024-02-21T15:11:43;11.80;69.50
10089;DHT22;51898;49.864;8.550;2024-02-21T15:14:45;11.80;70.10
10089;DHT22;51898;49.864;8.550;2024-02-21T15:17:46;11.70;69.80
10089;DHT22;51898;49.864;8.550;2024-02-21T15:20:48;11.70;70.00
10089;DHT22;51898;49.864;8.550;2024-02-21T15:23:50;11.60;70.50
10089;DHT22;51898;49.864;8.550;2024-02-21T15:26:52;11.50;71.00
10089;DHT22;51898;49.864;8.550;2024-02-21T15:29:54;11.30;71.00
10089;DHT22;51898;49.864;8.550;2024-02-21T15:32:56;11.20;70.90
10089;DHT22;51898;49.864;8.550;2024-02-21T15:36:03;11.20;71.10
10089;DHT22;51898;49.864;8.550;2024-02-21T15:39:05;11.10;71.30
10089;DHT22;51898;49.864;8.550;2024-02-21T15:42:07;11.00;71.50
10089;DHT22;51898;49.864;8.550;2024-02-21T15:45:09;11.00;71.70
10089;DHT22;51898;49.864;8.550;2024-02-21T15:48:11;10.90;72.10
10089;DHT22;51898;49.864;8.550;2024-02-21T15:51:15;10.90;72.40
10089;DHT22;51898;49.864;8.550;2024-02-21T15:54:16;10.80;72.50
10089;DHT22;51898;49.864;8.550;2024-02-21T15:57:24;10.80;72.70
10089;DHT22;51898;49.864;8.550;2024-02-21T16:00:26;10.80;72.70
10089;DHT22;51898;49.864;8.550;2024-02-21T16:03:27;10.70;72.70
10089;DHT22;51898;49.864;8.550;2024-02-21T16:06:29;10.70;72.70
10089;DHT22;51898;49.864;8.550;2024-02-21T16:09:34;10.70;73.00
10089;DHT22;51898;49.864;8.550;2024-02-21T16:12:37;10.60;73.10
10089;DHT22;51898;49.864;8.550;2024-02-21T16:15:42;10.60;73.20
10089;DHT22;51898;49.864;8.550;2024-02-21T16:18:44;10.50;73.60
10089;DHT22;51898;49.864;8.550;2024-02-21T16:21:54;10.50;74.00
10089;DHT22;51898;49.864;8.550;2024-02-21T16:25:10;10.40;74.00
10089;DHT22;51898;49.864;8.550;2024-02-21T16:28:46;10.40;74.70
10089;DHT22;51898;49.864;8.550;2024-02-21T16:32:15;10.30;75.00
10089;DHT22;51898;49.864;8.550;2024-02-21T16:35:16;10.30;75.00
10089;DHT22;51898;49.864;8.550;2024-02-21T16:38:39;10.20;75.10
10089;DHT22;51898;49.864;8.550;2024-02-21T16:42:07;10.20;75.20
10089;DHT22;51898;49.864;8.550;2024-02-21T16:45:36;10.10;75.30
10089;DHT22;51898;49.864;8.550;2024-02-21T16:48:37;10.00;75.00
10089;DHT22;51898;49.864;8.550;2024-02-21T16:51:39;10.00;74.50
10089;DHT22;51898;49.864;8.550;2024-02-21T16:54:41;10.00;74.30
10089;DHT22;51898;49.864;8.550;2024-02-21T16:57:43;9.90;74.20
10089;DHT22;51898;49.864;8.550;2024-02-21T17:00:45;9.90;74.20
10089;DHT22;51898;49.864;8.550;2024-02-21T17:03:48;9.90;74.30
10089;DHT22;51898;49.864;8.550;2024-02-21T17:06:50;9.80;74.20
10089;DHT22;51898;49.864;8.550;2024-02-21T17:09:52;9.80;73.80
10089;DHT22;51898;49.864;8.550;2024-02-21T17:12:54;9.70;73.50
10089;DHT22;51898;49.864;8.550;2024-02-21T17:16:00;9.70;73.40
10089;DHT22;51898;49.864;8.550;2024-02-21T17:19:02;9.70;73.40
10089;DHT22;51898;49.864;8.550;2024-02-21T17:22:10;9.60;73.10
10089;DHT22;51898;49.864;8.550;2024-02-21T17:25:13;9.70;73.10
10089;DHT22;51898;49.864;8.550;2024-02-21T17:28:15;9.60;73.10
10089;DHT22;51898;49.864;8.550;2024-02-21T17:31:17;9.60;73.00
10089;DHT22;51898;49.864;8.550;2024-02-21T17:34:21;9.60;73.10
10089;DHT22;51898;49.864;8.550;2024-02-21T17:37:26;9.60;73.30
10089;DHT22;51898;49.864;8.550;2024-02-21T17:40:30;9.60;73.40
10089;DHT22;51898;49.864;8.550;2024-02-21T17:43:36;9.60;73.40
10089;DHT22;51898;49.864;8.550;2024-02-21T17:46:43;9.50;73.70
10089;DHT22;51898;49.864;8.550;2024-02-21T17:49:46;9.50;73.70
10089;DHT22;51898;49.864;8.550;2024-02-21T17:52:49;9.50;73.90
10089;DHT22;51898;49.864;8.550;2024-02-21T17:55:51;9.50;74.10
10089;DHT22;51898;49.864;8.550;2024-02-21T17:58:53;9.50;74.10
10089;DHT22;51898;49.864;8.550;2024-02-21T18:01:55;9.50;74.20
10089;DHT22;51898;49.864;8.550;2024-02-21T18:04:56;9.40;74.00
10089;DHT22;51898;49.864;8.550;2024-02-21T18:07:58;9.50;74.10
10089;DHT22;51898;49.864;8.550;2024-02-21T18:11:11;9.40;74.10
10089;DHT22;51898;49.864;8.550;2024-02-21T18:14:14;9.50;74.00
10089;DHT22;51898;49.864;8.550;2024-02-21T18:17:16;9.50;74.20
10089;DHT22;51898;49.864;8.550;2024-02-21T18:20:20;9.40;74.40
10089;DHT22;51898;49.864;8.550;2024-02-21T18:23:22;9.40;74.30
10089;DHT22;51898;49.864;8.550;2024-02-21T18:26:23;9.40;74.50
10089;DHT22;51898;49.864;8.550;2024-02-21T18:29:26;9.40;74.60
10089;DHT22;51898;49.864;8.550;2024-02-21T18:32:40;9.40;74.70
10089;DHT22;51898;49.864;8.550;2024-02-21T18:35:43;9.40;74.60
10089;DHT22;51898;49.864;8.550;2024-02-21T18:38:45;9.40;74.80
10089;DHT22;51898;49.864;8.550;2024-02-21T18:41:47;9.40;75.10
10089;DHT22;51898;49.864;8.550;2024-02-21T18:44:48;9.40;75.00
10089;DHT22;51898;49.864;8.550;2024-02-21T18:47:51;9.40;74.90
10089;DHT22;51898;49.864;8.550;2024-02-21T18:50:53;9.40;74.80
10089;DHT22;51898;49.864;8.550;2024-02-21T18:53:55;9.40;74.80
10089;DHT22;51898;49.864;8.550;2024-02-21T18:56:57;9.50;74.60
10089;DHT22;51898;49.864;8.550;2024-02-21T18:59:59;9.50;74.50
10089;DHT22;51898;49.864;8.550;2024-02-21T19:03:00;9.50;74.20
10089;DHT22;51898;49.864;8.550;2024-02-21T19:06:03;9.50;74.20
10089;DHT22;51898;49.864;8.550;2024-02-21T19:09:05;9.50;73.90
10089;DHT22;51898;49.864;8.550;2024-02-21T19:12:08;9.60;73.80
10089;DHT22;51898;49.864;8.550;2024-02-21T19:15:14;9.50;73.70
10089;DHT22;51898;49.864;8.550;2024-02-21T19:18:17;9.60;73.70
10089;DHT22;51898;49.864;8.550;2024-02-21T19:21:21;9.60;73.30
10089;DHT22;51898;49.864;8.550;2024-02-21T19:24:23;9.60;73.40
10089;DHT22;51898;49.864;8.550;2024-02-21T19:27:26;9.60;73.80
10089;DHT22;51898;49.864;8.550;2024-02-21T19:30:27;9.60;73.80
10089;DHT22;51898;49.864;8.550;2024-02-21T19:33:30;9.60;73.90